Time;durP1;ratioP1;P1;durP2;ratioP2;P2;SDS_P1;SDS_P2;PMS_P1;PMS_P2;Temp;Humidity;BMP_temperature;BMP_pressure;BME280_temperature;BME280_humidity;BME280_pressure;Samples;Min_cycle;Max_cycle;Signal;HPM_P1;HPM_P2
2022/07/02 00:02:17;;;;;;;;;;;26.60;99.90;;;;;;5094777;28;19912;-63
2022/07/02 00:04:57;;;;;;;;;;;26.60;99.90;;;;;;5099607;28;20315;-64
2022/07/02 00:07:24;;;;;;;;;;;26.60;99.90;;;;;;5100356;28;19994;-64
2022/07/02 00:09:50;;;;;;;;;;;26.60;99.90;;;;;;5096276;28;20388;-63
2022/07/02 00:12:16;;;;;;;;;;;26.60;99.90;;;;;;5098195;28;19919;-64
2022/07/02 00:14:42;;;;;;;;;;;26.60;99.90;;;;;;5101907;28;19930;-63
2022/07/02 00:17:08;;;;;;;;;;;26.60;99.90;;;;;;5098761;28;19969;-64
2022/07/02 00:19:35;;;;;;;;;;;26.50;99.90;;;;;;5095961;28;19962;-63
2022/07/02 00:22:01;;;;;;;;;;;26.50;99.90;;;;;;5102659;28;19912;-62
2022/07/02 00:24:27;;;;;;;;;;;26.40;99.90;;;;;;5100092;28;20010;-63
2022/07/02 00:26:54;;;;;;;;;;;26.40;99.90;;;;;;5103602;28;20018;-65
2022/07/02 00:29:22;;;;;;;;;;;26.40;99.90;;;;;;5102788;28;19919;-64
2022/07/02 00:31:49;;;;;;;;;;;26.30;99.90;;;;;;5101591;28;20315;-66
2022/07/02 00:34:16;;;;;;;;;;;26.30;99.90;;;;;;5101473;28;19916;-65
2022/07/02 00:36:42;;;;;;;;;;;26.20;99.90;;;;;;5099911;28;19958;-62
2022/07/02 00:39:07;;;;;;;;;;;26.20;99.90;;;;;;5098952;28;19911;-61
2022/07/02 00:41:33;;;;;;;;;;;26.30;99.90;;;;;;5098742;28;19915;-61
2022/07/02 00:44:00;;;;;;;;;;;26.30;99.90;;;;;;5100612;28;19922;-65
2022/07/02 00:46:27;;;;;;;;;;;26.20;99.90;;;;;;5097093;28;19912;-63
2022/07/02 00:48:53;;;;;;;;;;;26.10;99.90;;;;;;5109573;28;20277;-62
2022/07/02 00:51:19;;;;;;;;;;;26.10;99.90;;;;;;5098401;28;19912;-63
2022/07/02 00:53:45;;;;;;;;;;;26.00;99.90;;;;;;5112507;28;19915;-63
2022/07/02 00:56:10;;;;;;;;;;;25.90;99.90;;;;;;5113715;28;20490;-61
2022/07/02 00:58:36;;;;;;;;;;;25.90;99.90;;;;;;5111426;28;20045;-62
2022/07/02 01:01:02;;;;;;;;;;;25.90;99.90;;;;;;5113385;28;19907;-58
2022/07/02 01:03:29;;;;;;;;;;;25.90;99.90;;;;;;5112789;28;19920;-61
2022/07/02 01:05:56;;;;;;;;;;;26.00;99.90;;;;;;5112280;28;19903;-62
2022/07/02 01:11:08;;;;;;;;;;;26.00;99.90;;;;;;5097154;28;19927;-60
2022/07/02 01:13:34;;;;;;;;;;;26.00;99.90;;;;;;5111025;28;20494;-62
2022/07/02 01:16:00;;;;;;;;;;;26.00;99.90;;;;;;5107393;28;19904;-62
2022/07/02 01:18:26;;;;;;;;;;;26.00;99.90;;;;;;5092125;28;19904;-64
2022/07/02 01:20:52;;;;;;;;;;;26.10;99.90;;;;;;5092430;28;19936;-62
2022/07/02 01:23:18;;;;;;;;;;;26.10;99.90;;;;;;5092065;28;19908;-61
2022/07/02 01:25:51;;;;;;;;;;;26.10;99.90;;;;;;5092273;28;20332;-62
2022/07/02 01:28:16;;;;;;;;;;;26.10;99.90;;;;;;5094861;28;19914;-62
2022/07/02 01:30:42;;;;;;;;;;;26.10;99.90;;;;;;5099715;28;19912;-64
2022/07/02 01:33:08;;;;;;;;;;;26.10;99.90;;;;;;5095487;28;19918;-63
2022/07/02 01:35:33;;;;;;;;;;;26.20;99.90;;;;;;5096592;28;19918;-63
2022/07/02 01:37:59;;;;;;;;;;;26.10;99.90;;;;;;5099686;28;20380;-62
2022/07/02 01:40:24;;;;;;;;;;;26.20;99.90;;;;;;5097322;28;20392;-62
2022/07/02 01:42:50;;;;;;;;;;;26.20;99.90;;;;;;5095459;28;19918;-61
2022/07/02 01:45:16;;;;;;;;;;;26.20;99.90;;;;;;5099055;28;20368;-60
2022/07/02 01:47:42;;;;;;;;;;;26.10;99.90;;;;;;5098522;28;20002;-63
2022/07/02 01:50:07;;;;;;;;;;;26.10;99.90;;;;;;5106911;28;19915;-62
2022/07/02 01:52:33;;;;;;;;;;;26.00;99.90;;;;;;5107345;28;19904;-61
2022/07/02 01:54:59;;;;;;;;;;;26.10;99.90;;;;;;5098977;28;20395;-60
2022/07/02 01:57:24;;;;;;;;;;;26.00;99.90;;;;;;5101371;28;19919;-59
2022/07/02 01:59:50;;;;;;;;;;;26.10;99.90;;;;;;5096885;28;20389;-63
2022/07/02 02:02:16;;;;;;;;;;;26.10;99.90;;;;;;5091883;28;20015;-59
2022/07/02 02:04:41;;;;;;;;;;;26.10;99.90;;;;;;5093716;28;19967;-63
2022/07/02 02:07:07;;;;;;;;;;;26.20;99.90;;;;;;5095817;28;19908;-62
2022/07/02 02:09:33;;;;;;;;;;;26.20;99.90;;;;;;5099622;28;20262;-62
2022/07/02 02:11:59;;;;;;;;;;;26.10;99.90;;;;;;5099161;28;20803;-61
2022/07/02 02:14:24;;;;;;;;;;;26.20;99.90;;;;;;5095243;28;19938;-64
2022/07/02 02:16:50;;;;;;;;;;;26.20;99.90;;;;;;5095960;28;19951;-59
2022/07/02 02:19:16;;;;;;;;;;;26.20;99.90;;;;;;5094768;28;19950;-61
2022/07/02 02:21:41;;;;;;;;;;;26.20;99.90;;;;;;5100716;28;19931;-63
2022/07/02 02:24:07;;;;;;;;;;;26.20;99.90;;;;;;5093907;28;19999;-59
2022/07/02 02:26:33;;;;;;;;;;;26.40;99.90;;;;;;5097467;28;19908;-60
2022/07/02 02:28:58;;;;;;;;;;;26.40;99.90;;;;;;5100138;28;19916;-61
2022/07/02 02:31:24;;;;;;;;;;;26.40;99.90;;;;;;5099163;28;19942;-62
2022/07/02 02:33:50;;;;;;;;;;;26.40;99.90;;;;;;5097974;28;20384;-61
2022/07/02 02:36:15;;;;;;;;;;;26.40;99.90;;;;;;5095479;28;19927;-58
2022/07/02 02:38:41;;;;;;;;;;;26.50;99.90;;;;;;5099111;28;19926;-61
2022/07/02 02:41:07;;;;;;;;;;;26.50;99.90;;;;;;5094117;28;19907;-59
2022/07/02 02:43:34;;;;;;;;;;;26.60;99.90;;;;;;5096677;28;19918;-66
2022/07/02 02:46:00;;;;;;;;;;;26.60;99.90;;;;;;5095393;28;19912;-70
2022/07/02 02:48:26;;;;;;;;;;;26.60;99.90;;;;;;5094285;28;19912;-71
2022/07/02 02:50:51;;;;;;;;;;;26.50;99.90;;;;;;5096570;28;19908;-71
2022/07/02 02:53:17;;;;;;;;;;;26.50;99.90;;;;;;5104540;28;19916;-71
2022/07/02 02:55:42;;;;;;;;;;;26.50;99.90;;;;;;5110589;28;19908;-73
2022/07/02 02:58:08;;;;;;;;;;;26.50;99.90;;;;;;5103428;28;19990;-68
2022/07/02 03:00:34;;;;;;;;;;;26.50;99.90;;;;;;5092592;28;19908;-69
2022/07/02 03:03:00;;;;;;;;;;;26.50;99.90;;;;;;5111114;28;20357;-70
2022/07/02 03:05:25;;;;;;;;;;;26.50;99.90;;;;;;5111070;28;19903;-72
2022/07/02 03:07:51;;;;;;;;;;;26.50;99.90;;;;;;5109559;28;19908;-70
2022/07/02 03:10:16;;;;;;;;;;;26.50;99.90;;;;;;5107874;28;19949;-71
2022/07/02 03:12:42;;;;;;;;;;;26.50;99.90;;;;;;5092852;28;19915;-71
2022/07/02 03:15:08;;;;;;;;;;;26.50;99.90;;;;;;5103145;28;20269;-72
2022/07/02 03:17:33;;;;;;;;;;;26.50;99.90;;;;;;5112567;28;19946;-71
2022/07/02 03:19:59;;;;;;;;;;;26.60;99.90;;;;;;5114374;28;19911;-71
2022/07/02 03:22:24;;;;;;;;;;;26.50;99.90;;;;;;5113114;28;19903;-70
2022/07/02 03:24:51;;;;;;;;;;;26.50;99.90;;;;;;5114377;28;20277;-72
2022/07/02 03:27:16;;;;;;;;;;;26.50;99.90;;;;;;5112843;28;19956;-72
2022/07/02 03:29:42;;;;;;;;;;;26.50;99.90;;;;;;5112459;28;20022;-72
2022/07/02 03:32:07;;;;;;;;;;;26.50;99.90;;;;;;5113638;28;19903;-71
2022/07/02 03:34:33;;;;;;;;;;;26.50;99.90;;;;;;5108837;28;19919;-70
2022/07/02 03:36:59;;;;;;;;;;;26.50;99.90;;;;;;5093880;28;19912;-73
2022/07/02 03:39:25;;;;;;;;;;;26.50;99.90;;;;;;5093671;28;19904;-71
2022/07/02 03:41:50;;;;;;;;;;;26.60;99.90;;;;;;5092640;28;20382;-71
2022/07/02 03:44:17;;;;;;;;;;;26.50;99.90;;;;;;5092975;28;19904;-75
2022/07/02 03:46:42;;;;;;;;;;;26.50;99.90;;;;;;5106327;28;19915;-72
2022/07/02 03:49:08;;;;;;;;;;;26.60;99.90;;;;;;5111175;28;19904;-71
2022/07/02 03:51:33;;;;;;;;;;;26.60;99.90;;;;;;5108431;28;19953;-73
2022/07/02 03:53:59;;;;;;;;;;;26.60;99.90;;;;;;5093399;28;19911;-70
2022/07/02 03:56:24;;;;;;;;;;;26.60;99.90;;;;;;5093269;28;19980;-70
2022/07/02 03:58:50;;;;;;;;;;;26.60;99.90;;;;;;5096163;28;20376;-71
2022/07/02 04:01:16;;;;;;;;;;;26.50;99.90;;;;;;5095895;28;19999;-71
2022/07/02 04:03:41;;;;;;;;;;;26.50;99.90;;;;;;5099079;28;19907;-71
2022/07/02 04:06:07;;;;;;;;;;;26.60;99.90;;;;;;5100593;28;19907;-75
2022/07/02 04:08:33;;;;;;;;;;;26.50;99.90;;;;;;5100238;28;20353;-71
2022/07/02 04:10:58;;;;;;;;;;;26.60;99.90;;;;;;5100110;28;19922;-72
2022/07/02 04:13:24;;;;;;;;;;;26.50;99.90;;;;;;5096949;28;19919;-71
2022/07/02 04:15:49;;;;;;;;;;;26.60;99.90;;;;;;5099255;28;20257;-73
2022/07/02 04:18:15;;;;;;;;;;;26.60;99.90;;;;;;5097931;28;20263;-73
2022/07/02 04:20:41;;;;;;;;;;;26.60;99.90;;;;;;5099974;28;19939;-73
2022/07/02 04:23:07;;;;;;;;;;;26.50;99.90;;;;;;5100355;28;20024;-70
2022/07/02 04:25:32;;;;;;;;;;;26.60;99.90;;;;;;5096656;28;20277;-73
2022/07/02 04:27:58;;;;;;;;;;;26.60;99.90;;;;;;5100660;28;19998;-70
2022/07/02 04:30:23;;;;;;;;;;;26.60;99.90;;;;;;5101404;28;20061;-74
2022/07/02 04:32:49;;;;;;;;;;;26.60;99.90;;;;;;5099556;28;20377;-70
2022/07/02 04:35:15;;;;;;;;;;;26.60;99.90;;;;;;5101477;28;19912;-70
2022/07/02 04:37:40;;;;;;;;;;;26.60;99.90;;;;;;5099193;28;20282;-72
2022/07/02 04:40:08;;;;;;;;;;;26.60;99.90;;;;;;5096972;28;19911;-75
2022/07/02 04:42:33;;;;;;;;;;;26.60;99.90;;;;;;5097007;28;19917;-71
2022/07/02 04:44:59;;;;;;;;;;;26.60;99.90;;;;;;5097344;28;20064;-70
2022/07/02 04:47:24;;;;;;;;;;;26.70;99.90;;;;;;5095303;28;19911;-73
2022/07/02 04:49:50;;;;;;;;;;;26.70;99.90;;;;;;5091274;28;19912;-73
2022/07/02 04:52:16;;;;;;;;;;;26.80;99.90;;;;;;5106755;28;20429;-72
2022/07/02 04:54:41;;;;;;;;;;;26.80;99.90;;;;;;5112737;28;19907;-71
2022/07/02 04:57:07;;;;;;;;;;;26.70;99.90;;;;;;5105417;28;19908;-71
2022/07/02 04:59:42;;;;;;;;;;;26.70;99.90;;;;;;5093838;28;19910;-74
2022/07/02 05:02:07;;;;;;;;;;;26.70;99.90;;;;;;5111921;28;19951;-73
2022/07/02 05:04:36;;;;;;;;;;;26.80;99.90;;;;;;5113101;28;20341;-71
2022/07/02 05:07:03;;;;;;;;;;;26.80;99.90;;;;;;5113356;28;19904;-71
2022/07/02 05:09:28;;;;;;;;;;;26.80;99.90;;;;;;5106400;28;19904;-71
2022/07/02 05:11:54;;;;;;;;;;;26.90;99.90;;;;;;5091672;28;19915;-69
2022/07/02 05:14:20;;;;;;;;;;;26.90;99.90;;;;;;5093151;28;20325;-71
2022/07/02 05:16:46;;;;;;;;;;;27.00;99.90;;;;;;5108707;28;19915;-72
2022/07/02 05:19:11;;;;;;;;;;;27.00;99.90;;;;;;5093029;28;19904;-71
2022/07/02 05:21:37;;;;;;;;;;;27.00;99.90;;;;;;5094152;28;19953;-70
2022/07/02 05:24:03;;;;;;;;;;;27.00;99.90;;;;;;5105296;28;19915;-71
2022/07/02 05:26:29;;;;;;;;;;;27.10;99.90;;;;;;5099916;28;19926;-73
2022/07/02 05:28:55;;;;;;;;;;;27.10;99.90;;;;;;5103691;28;20529;-71
2022/07/02 05:31:20;;;;;;;;;;;27.20;99.90;;;;;;5100741;28;20292;-72
2022/07/02 05:33:46;;;;;;;;;;;27.20;99.90;;;;;;5102306;28;19912;-72
2022/07/02 05:36:12;;;;;;;;;;;27.20;99.90;;;;;;5100067;28;19912;-72
2022/07/02 05:38:38;;;;;;;;;;;27.30;99.90;;;;;;5101110;28;19907;-72
2022/07/02 05:41:03;;;;;;;;;;;27.30;99.90;;;;;;5099736;28;19920;-72
2022/07/02 05:43:29;;;;;;;;;;;27.40;99.90;;;;;;5099081;28;19914;-71
2022/07/02 05:45:54;;;;;;;;;;;27.40;99.90;;;;;;5100475;28;19908;-74
2022/07/02 05:48:20;;;;;;;;;;;27.40;99.90;;;;;;5109411;28;19919;-71
2022/07/02 05:50:45;;;;;;;;;;;27.50;99.90;;;;;;5110845;28;19903;-72
2022/07/02 05:53:11;;;;;;;;;;;27.50;99.90;;;;;;5093444;28;19907;-69
2022/07/02 05:55:37;;;;;;;;;;;27.50;99.90;;;;;;5105469;28;19910;-71
2022/07/02 05:58:02;;;;;;;;;;;27.60;99.90;;;;;;5110156;28;19904;-70
2022/07/02 06:00:28;;;;;;;;;;;27.60;99.90;;;;;;5109963;28;19904;-72
2022/07/02 06:02:53;;;;;;;;;;;27.70;99.90;;;;;;5111104;28;19912;-70
2022/07/02 06:08:03;;;;;;;;;;;27.60;99.90;;;;;;5110802;28;20012;-71
2022/07/02 06:10:29;;;;;;;;;;;27.70;99.90;;;;;;5109934;28;19936;-71
2022/07/02 06:12:55;;;;;;;;;;;27.70;99.90;;;;;;5111522;28;19913;-72
2022/07/02 06:15:20;;;;;;;;;;;27.70;99.90;;;;;;5111640;28;20297;-72
2022/07/02 06:17:46;;;;;;;;;;;27.80;99.90;;;;;;5102951;28;19911;-65
2022/07/02 06:20:12;;;;;;;;;;;27.90;99.90;;;;;;5098426;28;19927;-65
2022/07/02 06:22:38;;;;;;;;;;;27.90;99.90;;;;;;5100388;28;20003;-63
2022/07/02 06:25:05;;;;;;;;;;;27.90;99.90;;;;;;5095004;28;19998;-65
2022/07/02 06:27:33;;;;;;;;;;;27.90;99.90;;;;;;5095033;28;19915;-66
2022/07/02 06:30:02;;;;;;;;;;;27.90;99.90;;;;;;5100566;28;20346;-63
2022/07/02 06:32:28;;;;;;;;;;;28.00;99.90;;;;;;5104700;28;19915;-64
2022/07/02 06:34:54;;;;;;;;;;;28.00;99.90;;;;;;5107419;28;19912;-64
2022/07/02 06:37:20;;;;;;;;;;;28.10;99.90;;;;;;5107085;28;19914;-64
2022/07/02 06:39:46;;;;;;;;;;;28.10;99.90;;;;;;5107297;28;19952;-66
2022/07/02 06:42:22;;;;;;;;;;;28.10;99.90;;;;;;5104881;28;19912;-66
2022/07/02 06:44:49;;;;;;;;;;;28.00;99.90;;;;;;5112008;27;20270;-65
2022/07/02 06:47:15;;;;;;;;;;;28.10;99.90;;;;;;5107164;28;19922;-65
2022/07/02 06:49:41;;;;;;;;;;;28.10;99.90;;;;;;5106056;28;19916;-64
2022/07/02 06:52:07;;;;;;;;;;;28.20;99.90;;;;;;5109688;28;19915;-65
2022/07/02 06:54:33;;;;;;;;;;;28.20;99.90;;;;;;5109049;28;19911;-65
2022/07/02 06:56:59;;;;;;;;;;;28.20;99.90;;;;;;5111767;28;20428;-64
2022/07/02 06:59:25;;;;;;;;;;;28.30;99.90;;;;;;5111234;28;19935;-65
2022/07/02 07:01:51;;;;;;;;;;;28.40;99.90;;;;;;5112419;28;20501;-65
2022/07/02 07:04:16;;;;;;;;;;;28.30;99.90;;;;;;5114150;28;19916;-64
2022/07/02 07:07:03;;;;;;;;;;;28.40;99.90;;;;;;5115361;28;19911;-64
2022/07/02 07:09:29;;;;;;;;;;;28.30;99.90;;;;;;5115515;28;19907;-68
2022/07/02 07:11:54;;;;;;;;;;;28.30;99.90;;;;;;5100571;28;20335;-65
2022/07/02 07:14:20;;;;;;;;;;;28.40;99.90;;;;;;5113176;28;19907;-64
2022/07/02 07:16:46;;;;;;;;;;;28.40;99.90;;;;;;5107396;28;20028;-65
2022/07/02 07:19:12;;;;;;;;;;;28.40;99.90;;;;;;5108348;28;19914;-64
2022/07/02 07:21:39;;;;;;;;;;;28.30;99.90;;;;;;5112592;28;19909;-64
2022/07/02 07:24:05;;;;;;;;;;;28.50;99.90;;;;;;5112748;28;20373;-64
2022/07/02 07:26:30;;;;;;;;;;;28.50;99.90;;;;;;5107845;28;19912;-66
2022/07/02 07:28:56;;;;;;;;;;;28.60;99.90;;;;;;5111878;28;20006;-64
2022/07/02 07:31:22;;;;;;;;;;;28.60;99.90;;;;;;5112860;28;19910;-65
2022/07/02 07:33:48;;;;;;;;;;;28.70;99.90;;;;;;5109410;28;19912;-63
2022/07/02 07:36:14;;;;;;;;;;;28.60;99.90;;;;;;5113244;27;19911;-62
2022/07/02 07:38:39;;;;;;;;;;;28.60;99.90;;;;;;5106422;28;20384;-64
2022/07/02 07:41:05;;;;;;;;;;;28.80;99.90;;;;;;5112974;28;20048;-65
2022/07/02 07:43:31;;;;;;;;;;;28.80;99.90;;;;;;5111122;28;20404;-63
2022/07/02 07:45:59;;;;;;;;;;;28.80;99.90;;;;;;5110328;28;20013;-65
2022/07/02 07:48:27;;;;;;;;;;;28.80;99.90;;;;;;5109319;27;19919;-65
2022/07/02 07:50:52;;;;;;;;;;;28.80;99.90;;;;;;5104399;28;19912;-64
2022/07/02 07:53:18;;;;;;;;;;;28.80;99.90;;;;;;5128520;27;20063;-64
2022/07/02 07:55:43;;;;;;;;;;;28.90;99.90;;;;;;5134425;27;19925;-64
2022/07/02 07:58:09;;;;;;;;;;;29.00;99.90;;;;;;5134705;27;19903;-64
2022/07/02 08:00:35;;;;;;;;;;;29.00;99.90;;;;;;5135210;27;19903;-65
2022/07/02 08:03:00;;;;;;;;;;;29.10;99.90;;;;;;5136353;27;20650;-65
2022/07/02 08:05:26;;;;;;;;;;;29.20;99.90;;;;;;5122529;27;19910;-65
2022/07/02 08:07:52;;;;;;;;;;;29.20;99.90;;;;;;5100360;28;19911;-65
2022/07/02 08:10:17;;;;;;;;;;;29.30;99.90;;;;;;5093388;28;20357;-63
2022/07/02 08:12:43;;;;;;;;;;;29.30;99.90;;;;;;5093499;28;19957;-64
2022/07/02 08:15:09;;;;;;;;;;;29.30;99.90;;;;;;5094358;28;19943;-64
2022/07/02 08:17:35;;;;;;;;;;;29.30;99.90;;;;;;5094298;28;19923;-65
2022/07/02 08:20:03;;;;;;;;;;;29.40;99.90;;;;;;5102173;28;19960;-64
2022/07/02 08:22:29;;;;;;;;;;;29.50;99.90;;;;;;5115382;28;19907;-65
2022/07/02 08:24:55;;;;;;;;;;;29.40;99.90;;;;;;5111940;28;19910;-63
2022/07/02 08:27:20;;;;;;;;;;;29.40;99.90;;;;;;5096981;28;19912;-65
2022/07/02 08:29:46;;;;;;;;;;;29.50;99.90;;;;;;5112856;28;19998;-65
2022/07/02 08:32:11;;;;;;;;;;;29.60;99.90;;;;;;5116608;28;19904;-65
2022/07/02 08:34:37;;;;;;;;;;;29.60;99.90;;;;;;5116813;28;19918;-66
2022/07/02 08:37:03;;;;;;;;;;;29.70;99.90;;;;;;5116814;28;19991;-64
2022/07/02 08:39:28;;;;;;;;;;;29.70;99.90;;;;;;5116050;28;20002;-64
2022/07/02 08:41:54;;;;;;;;;;;29.70;99.90;;;;;;5113653;28;19904;-65
2022/07/02 08:44:21;;;;;;;;;;;29.80;99.90;;;;;;5115140;28;20338;-65
2022/07/02 08:46:47;;;;;;;;;;;29.80;99.90;;;;;;5114663;28;19911;-63
2022/07/02 08:49:16;;;;;;;;;;;29.90;99.90;;;;;;5107128;28;19907;-66
2022/07/02 08:51:43;;;;;;;;;;;29.90;99.90;;;;;;5110992;27;19915;-64
2022/07/02 08:54:09;;;;;;;;;;;29.90;99.90;;;;;;5114577;28;19931;-65
2022/07/02 08:56:35;;;;;;;;;;;29.80;99.90;;;;;;5115057;28;19969;-64
2022/07/02 08:59:01;;;;;;;;;;;29.90;99.90;;;;;;5114038;28;19923;-65
2022/07/02 09:01:27;;;;;;;;;;;30.00;99.90;;;;;;5113730;28;20244;-63
2022/07/02 09:03:53;;;;;;;;;;;30.00;99.90;;;;;;5114953;28;19961;-65
2022/07/02 09:06:22;;;;;;;;;;;30.10;99.90;;;;;;5113430;28;19907;-65
2022/07/02 09:08:47;;;;;;;;;;;30.30;99.90;;;;;;5107574;28;20458;-65
2022/07/02 09:11:13;;;;;;;;;;;30.30;99.90;;;;;;5094925;28;19911;-65
2022/07/02 09:13:39;;;;;;;;;;;30.30;99.90;;;;;;5094073;28;19917;-65
2022/07/02 09:16:05;;;;;;;;;;;30.50;99.90;;;;;;5094732;28;19989;-64
2022/07/02 09:18:31;;;;;;;;;;;30.60;99.90;;;;;;5093371;28;20258;-65
2022/07/02 09:20:56;;;;;;;;;;;30.70;99.90;;;;;;5098724;28;19908;-65
2022/07/02 09:23:22;;;;;;;;;;;30.70;99.90;;;;;;5113337;28;20396;-64
2022/07/02 09:25:48;;;;;;;;;;;30.70;99.90;;;;;;5114393;28;19903;-64
2022/07/02 09:28:15;;;;;;;;;;;30.70;99.90;;;;;;5111563;28;19965;-65
2022/07/02 09:30:41;;;;;;;;;;;30.70;99.90;;;;;;5112994;28;19935;-64
2022/07/02 09:33:29;;;;;;;;;;;30.70;99.90;;;;;;5095944;28;20370;-65
2022/07/02 09:35:55;;;;;;;;;;;30.70;99.90;;;;;;5092664;28;20510;-63
2022/07/02 09:38:20;;;;;;;;;;;30.70;99.90;;;;;;5092901;28;20290;-65
2022/07/02 09:40:57;;;;;;;;;;;30.80;99.90;;;;;;5092983;28;19969;-64
2022/07/02 09:43:26;;;;;;;;;;;30.90;99.90;;;;;;5092162;28;19911;-65
2022/07/02 09:45:51;;;;;;;;;;;31.00;99.90;;;;;;5104981;28;19963;-64
2022/07/02 09:48:17;;;;;;;;;;;31.00;99.90;;;;;;5111364;28;20392;-64
2022/07/02 09:50:43;;;;;;;;;;;31.00;99.90;;;;;;5099560;28;19973;-65
2022/07/02 09:53:11;;;;;;;;;;;31.00;99.90;;;;;;5111773;28;19919;-65
2022/07/02 09:55:36;;;;;;;;;;;31.10;99.90;;;;;;5111219;28;19984;-65
2022/07/02 09:58:02;;;;;;;;;;;31.20;99.90;;;;;;5110016;28;20365;-63
2022/07/02 10:00:30;;;;;;;;;;;31.20;99.90;;;;;;5106804;28;19908;-65
2022/07/02 10:02:57;;;;;;;;;;;31.20;99.90;;;;;;5110122;28;19907;-64
2022/07/02 10:05:27;;;;;;;;;;;31.20;99.90;;;;;;5109350;28;19994;-65
2022/07/02 10:07:56;;;;;;;;;;;31.30;99.90;;;;;;5110935;28;20377;-64
2022/07/02 10:10:38;;;;;;;;;;;31.40;99.90;;;;;;5111726;28;19949;-63
2022/07/02 10:13:07;;;;;;;;;;;31.20;99.90;;;;;;5111307;28;19912;-61
2022/07/02 10:15:36;;;;;;;;;;;31.00;99.90;;;;;;5118339;28;20300;-62
2022/07/02 10:18:03;;;;;;;;;;;31.10;99.90;;;;;;5113121;28;19915;-63
2022/07/02 10:20:29;;;;;;;;;;;31.20;99.90;;;;;;5109675;28;19922;-63
2022/07/02 10:22:56;;;;;;;;;;;31.10;99.90;;;;;;5109227;28;19908;-63
2022/07/02 10:25:22;;;;;;;;;;;31.20;99.90;;;;;;5110653;28;19911;-65
2022/07/02 10:27:47;;;;;;;;;;;31.30;99.90;;;;;;5107591;28;19916;-64
2022/07/02 10:30:17;;;;;;;;;;;31.40;99.90;;;;;;5104899;28;19912;-66
2022/07/02 10:32:49;;;;;;;;;;;31.20;99.90;;;;;;5110117;28;19922;-65
2022/07/02 10:35:15;;;;;;;;;;;31.30;99.90;;;;;;5107687;28;19912;-62
2022/07/02 10:37:41;;;;;;;;;;;31.50;99.90;;;;;;5107085;28;19919;-63
2022/07/02 10:40:08;;;;;;;;;;;31.50;99.90;;;;;;5111001;28;19904;-65
2022/07/02 10:42:37;;;;;;;;;;;31.50;99.90;;;;;;5110093;28;20361;-64
2022/07/02 10:45:09;;;;;;;;;;;31.40;99.90;;;;;;5110282;28;20580;-64
2022/07/02 10:47:35;;;;;;;;;;;31.50;99.90;;;;;;5109080;28;19960;-64
2022/07/02 10:50:01;;;;;;;;;;;31.50;99.90;;;;;;5109791;28;19915;-64
2022/07/02 10:52:37;;;;;;;;;;;31.60;99.90;;;;;;5104782;28;19908;-62
2022/07/02 10:55:02;;;;;;;;;;;31.70;99.90;;;;;;5109897;28;19911;-66
2022/07/02 10:57:28;;;;;;;;;;;31.70;99.90;;;;;;5110660;28;19959;-66
2022/07/02 10:59:54;;;;;;;;;;;31.90;99.90;;;;;;5110817;28;20004;-67
2022/07/02 11:02:19;;;;;;;;;;;31.90;99.90;;;;;;5111085;28;19904;-65
2022/07/02 11:04:45;;;;;;;;;;;31.90;99.90;;;;;;5110997;28;19904;-65
2022/07/02 11:07:12;;;;;;;;;;;32.10;99.90;;;;;;5110576;28;19972;-64
2022/07/02 11:09:57;;;;;;;;;;;32.20;99.90;;;;;;5101044;28;19904;-65
2022/07/02 11:12:27;;;;;;;;;;;32.40;99.90;;;;;;5090574;28;19911;-63
2022/07/02 11:14:56;;;;;;;;;;;32.30;99.90;;;;;;5102275;28;19977;-66
2022/07/02 11:17:24;;;;;;;;;;;32.30;99.90;;;;;;5109186;28;20361;-66
2022/07/02 11:19:56;;;;;;;;;;;32.20;99.90;;;;;;5110567;28;19904;-64
2022/07/02 11:22:22;;;;;;;;;;;32.20;99.90;;;;;;5105631;28;19931;-64
2022/07/02 11:24:47;;;;;;;;;;;32.30;99.90;;;;;;5102096;28;20369;-64
2022/07/02 11:27:13;;;;;;;;;;;32.50;99.90;;;;;;5107418;28;19957;-69
2022/07/02 11:29:39;;;;;;;;;;;32.60;99.90;;;;;;5103905;28;20002;-69
2022/07/02 11:32:05;;;;;;;;;;;32.70;99.90;;;;;;5112844;28;19999;-69
2022/07/02 11:34:31;;;;;;;;;;;32.80;99.90;;;;;;5111577;28;19912;-68
2022/07/02 11:36:57;;;;;;;;;;;33.00;99.90;;;;;;5112389;28;19907;-68
2022/07/02 11:39:23;;;;;;;;;;;33.10;99.90;;;;;;5109334;28;19903;-69
2022/07/02 11:41:56;;;;;;;;;;;33.10;99.90;;;;;;5113541;28;19908;-68
2022/07/02 11:44:25;;;;;;;;;;;33.10;99.90;;;;;;5110607;28;19910;-70
2022/07/02 11:46:52;;;;;;;;;;;33.00;99.90;;;;;;5115337;28;19907;-69
2022/07/02 11:49:18;;;;;;;;;;;33.10;99.90;;;;;;5121760;28;19908;-67
2022/07/02 11:51:45;;;;;;;;;;;33.30;99.90;;;;;;5116536;28;19950;-68
2022/07/02 11:54:11;;;;;;;;;;;33.50;99.90;;;;;;5105621;28;19916;-69
2022/07/02 11:56:39;;;;;;;;;;;33.40;99.90;;;;;;5114158;28;19908;-68
2022/07/02 11:59:09;;;;;;;;;;;33.10;99.90;;;;;;5115778;28;20347;-66
2022/07/02 12:01:35;;;;;;;;;;;33.20;99.90;;;;;;5104390;28;20281;-66
2022/07/02 12:04:02;;;;;;;;;;;33.40;99.90;;;;;;5109602;28;19915;-66
2022/07/02 12:06:29;;;;;;;;;;;33.50;99.90;;;;;;5100847;28;19910;-66
2022/07/02 12:08:55;;;;;;;;;;;33.60;99.90;;;;;;5105466;28;19908;-67
2022/07/02 12:11:22;;;;;;;;;;;33.70;99.90;;;;;;5113523;28;19976;-67
2022/07/02 12:13:48;;;;;;;;;;;33.70;99.90;;;;;;5106437;28;19931;-66
2022/07/02 12:16:15;;;;;;;;;;;33.40;99.90;;;;;;5108380;28;19908;-66
2022/07/02 12:18:41;;;;;;;;;;;33.30;99.90;;;;;;5109898;28;19961;-67
2022/07/02 12:21:07;;;;;;;;;;;33.30;99.90;;;;;;5105521;28;19908;-67
2022/07/02 12:23:43;;;;;;;;;;;33.40;99.90;;;;;;5084357;28;20003;-68
2022/07/02 12:26:09;;;;;;;;;;;33.60;99.90;;;;;;5105900;28;19903;-66
2022/07/02 12:31:19;;;;;;;;;;;33.80;99.90;;;;;;5105225;28;20348;-67
2022/07/02 12:33:57;;;;;;;;;;;34.00;99.90;;;;;;5104572;28;19998;-66
2022/07/02 12:36:24;;;;;;;;;;;33.80;99.90;;;;;;5112409;28;19911;-65
2022/07/02 12:38:50;;;;;;;;;;;33.70;99.90;;;;;;5109277;28;19907;-70
2022/07/02 12:41:17;;;;;;;;;;;33.70;99.90;;;;;;5108654;28;19908;-67
2022/07/02 12:43:52;;;;;;;;;;;33.80;99.90;;;;;;5112440;28;19930;-66
2022/07/02 12:46:18;;;;;;;;;;;34.00;99.90;;;;;;5105770;28;19915;-66
2022/07/02 12:48:44;;;;;;;;;;;33.90;99.90;;;;;;5107142;28;19934;-67
2022/07/02 12:51:10;;;;;;;;;;;33.90;99.90;;;;;;5111316;28;19930;-66
2022/07/02 12:53:37;;;;;;;;;;;34.10;99.90;;;;;;5106574;28;20390;-68
2022/07/02 12:56:04;;;;;;;;;;;34.10;99.90;;;;;;5108245;28;19919;-67
2022/07/02 12:58:31;;;;;;;;;;;34.20;99.90;;;;;;5111685;28;19908;-67
2022/07/02 13:00:59;;;;;;;;;;;34.00;99.90;;;;;;5115001;28;19919;-67
2022/07/02 13:03:25;;;;;;;;;;;34.00;99.90;;;;;;5110272;28;20255;-67
2022/07/02 13:05:53;;;;;;;;;;;34.20;99.90;;;;;;5114516;28;20395;-67
2022/07/02 13:08:22;;;;;;;;;;;34.40;99.90;;;;;;5110536;28;20457;-67
2022/07/02 13:10:51;;;;;;;;;;;34.60;99.90;;;;;;5110266;27;19915;-69
2022/07/02 13:13:18;;;;;;;;;;;34.50;99.90;;;;;;5110144;28;19916;-68
2022/07/02 13:15:44;;;;;;;;;;;34.70;99.90;;;;;;5107883;28;20266;-66
2022/07/02 13:18:10;;;;;;;;;;;34.70;99.90;;;;;;5110138;28;19915;-67
2022/07/02 13:20:36;;;;;;;;;;;34.60;99.90;;;;;;5113218;28;19910;-66
2022/07/02 13:23:02;;;;;;;;;;;34.70;99.90;;;;;;5109818;28;20329;-67
2022/07/02 13:25:28;;;;;;;;;;;34.70;99.90;;;;;;5105818;28;19964;-67
2022/07/02 13:27:54;;;;;;;;;;;34.70;99.90;;;;;;5112601;28;19908;-67
2022/07/02 13:30:20;;;;;;;;;;;34.50;99.90;;;;;;5108908;28;19933;-66
2022/07/02 13:32:46;;;;;;;;;;;34.50;99.90;;;;;;5114013;28;19915;-66
2022/07/02 13:35:12;;;;;;;;;;;34.60;99.90;;;;;;5107572;28;19922;-66
2022/07/02 13:37:39;;;;;;;;;;;34.60;99.90;;;;;;5107299;28;19907;-67
2022/07/02 13:40:06;;;;;;;;;;;34.70;99.90;;;;;;5109926;28;19912;-66
2022/07/02 13:42:33;;;;;;;;;;;34.70;99.90;;;;;;5111186;28;20430;-67
2022/07/02 13:44:59;;;;;;;;;;;35.00;99.90;;;;;;5106752;28;20372;-68
2022/07/02 13:47:25;;;;;;;;;;;35.00;99.90;;;;;;5106374;28;19908;-67
2022/07/02 13:49:51;;;;;;;;;;;35.10;99.90;;;;;;5107411;28;19911;-67
2022/07/02 13:52:16;;;;;;;;;;;35.00;99.90;;;;;;5109927;28;19908;-67
2022/07/02 13:54:42;;;;;;;;;;;34.70;99.90;;;;;;5103586;28;19926;-67
2022/07/02 13:57:09;;;;;;;;;;;34.60;99.90;;;;;;5109060;28;20682;-67
2022/07/02 13:59:34;;;;;;;;;;;34.60;99.90;;;;;;5111877;28;20379;-67
2022/07/02 14:02:04;;;;;;;;;;;34.60;99.90;;;;;;5113289;28;19916;-69
2022/07/02 14:04:30;;;;;;;;;;;34.70;99.90;;;;;;5096103;28;20170;-67
2022/07/02 14:06:56;;;;;;;;;;;35.10;99.90;;;;;;5104481;28;19915;-67
2022/07/02 14:09:23;;;;;;;;;;;35.50;99.90;;;;;;5110498;28;19915;-66
2022/07/02 14:11:48;;;;;;;;;;;35.40;99.90;;;;;;5112251;28;19914;-66
2022/07/02 14:14:15;;;;;;;;;;;35.30;99.90;;;;;;5105068;28;19912;-68
2022/07/02 14:16:40;;;;;;;;;;;35.50;99.90;;;;;;5108499;28;20284;-69
2022/07/02 14:19:09;;;;;;;;;;;35.50;99.90;;;;;;5105968;28;19907;-67
2022/07/02 14:21:34;;;;;;;;;;;35.60;99.90;;;;;;5108794;28;19907;-66